Time;durP1;ratioP1;P1;durP2;ratioP2;P2;SDS_P1;SDS_P2;PMS_P1;PMS_P2;Temp;Humidity;BMP_temperature;BMP_pressure;BME280_temperature;BME280_humidity;BME280_pressure;Samples;Min_cycle;Max_cycle;Signal;HPM_P1;HPM_P2
2022/09/27 00:01:16;;;;;;;3.78;1.35;;;11.50;99.90;;;;;;4931148;29;20043;-66
2022/09/27 00:03:43;;;;;;;2.72;1.40;;;11.40;99.90;;;;;;4931169;29;20054;-74
2022/09/27 00:06:21;;;;;;;3.15;1.05;;;11.40;99.90;;;;;;4932061;29;20065;-74
2022/09/27 00:08:47;;;;;;;3.08;1.15;;;11.40;99.90;;;;;;4913459;29;20043;-74
2022/09/27 00:11:22;;;;;;;4.95;1.20;;;11.40;99.90;;;;;;4942414;29;20063;-74
2022/09/27 00:13:47;;;;;;;1.98;0.93;;;11.40;99.90;;;;;;4943242;29;20058;-74
2022/09/27 00:16:13;;;;;;;3.28;1.10;;;11.40;99.90;;;;;;4964153;28;20114;-74
2022/09/27 00:18:39;;;;;;;2.10;1.00;;;11.40;99.90;;;;;;4963464;28;20290;-74
2022/09/27 00:21:10;;;;;;;2.78;1.15;;;11.40;99.90;;;;;;4947211;29;20135;-74
2022/09/27 00:23:37;;;;;;;2.60;1.10;;;11.30;99.90;;;;;;4948389;28;20098;-74
2022/09/27 00:26:03;;;;;;;1.73;0.80;;;11.30;99.90;;;;;;4959194;28;20055;-74
2022/09/27 00:28:29;;;;;;;2.08;1.20;;;11.40;99.90;;;;;;4945736;29;20062;-73
2022/09/27 00:30:56;;;;;;;1.73;1.00;;;11.30;99.90;;;;;;4947504;28;20688;-74
2022/09/27 00:33:22;;;;;;;2.90;1.00;;;11.40;99.90;;;;;;4926093;29;20043;-74
2022/09/27 00:35:48;;;;;;;2.08;1.10;;;11.40;99.90;;;;;;4931335;29;20124;-74
2022/09/27 00:38:14;;;;;;;1.75;0.90;;;11.30;99.90;;;;;;4959392;28;20043;-73
2022/09/27 00:40:39;;;;;;;2.22;1.10;;;11.30;99.90;;;;;;4947720;29;20114;-73
2022/09/27 00:43:19;;;;;;;1.17;0.98;;;11.30;99.90;;;;;;4931491;29;20077;-73
2022/09/27 00:45:54;;;;;;;2.15;0.98;;;11.30;99.90;;;;;;4948357;28;20054;-74
2022/09/27 00:48:22;;;;;;;1.17;0.85;;;11.20;99.90;;;;;;4913614;29;20482;-74
2022/09/27 00:50:49;;;;;;;1.70;0.82;;;11.30;99.90;;;;;;4931158;29;20059;-74
2022/09/27 00:53:38;;;;;;;1.95;0.82;;;11.30;99.90;;;;;;4974049;28;20777;-74
2022/09/27 00:56:11;;;;;;;3.35;1.08;;;11.30;99.90;;;;;;4933275;29;20061;-74
2022/09/27 00:58:42;;;;;;;1.55;0.82;;;11.30;99.90;;;;;;4931323;29;20126;-73
2022/09/27 01:01:09;;;;;;;1.20;0.80;;;11.30;99.90;;;;;;4931571;29;20560;-74
2022/09/27 01:04:05;;;;;;;2.08;1.23;;;11.30;99.90;;;;;;4932481;29;20428;-73
2022/09/27 01:06:31;;;;;;;3.20;1.00;;;11.30;99.90;;;;;;4946030;29;20039;-74
2022/09/27 01:08:56;;;;;;;1.45;0.90;;;11.30;99.90;;;;;;4927964;29;20051;-74
2022/09/27 01:12:08;;;;;;;1.33;0.80;;;11.30;99.90;;;;;;4942752;29;20055;-73
2022/09/27 01:14:55;;;;;;;1.63;0.88;;;11.20;99.90;;;;;;4919787;28;20051;-73
2022/09/27 01:17:39;;;;;;;3.22;1.08;;;11.30;99.90;;;;;;4930741;29;20106;-73
2022/09/27 01:20:30;;;;;;;3.65;0.90;;;11.20;99.90;;;;;;4946799;29;20054;-73
2022/09/27 01:23:27;;;;;;;1.50;1.00;;;11.30;99.90;;;;;;4946316;29;20046;-74
2022/09/27 01:25:57;;;;;;;1.75;0.80;;;11.30;99.90;;;;;;4943585;29;20095;-74
2022/09/27 01:28:51;;;;;;;1.92;0.65;;;11.30;99.90;;;;;;4947029;29;20144;-73
2022/09/27 01:31:26;;;;;;;0.95;0.85;;;11.20;99.90;;;;;;4929940;29;20527;-73
2022/09/27 01:34:30;;;;;;;1.08;0.68;;;11.20;99.90;;;;;;4945421;29;20568;-74
2022/09/27 01:37:23;;;;;;;1.00;0.60;;;11.30;99.90;;;;;;4940400;28;20054;-74
2022/09/27 01:39:51;;;;;;;2.22;0.88;;;11.30;99.90;;;;;;4927509;29;20047;-74
2022/09/27 01:42:24;;;;;;;1.65;0.93;;;11.30;99.90;;;;;;4946823;28;20047;-74
2022/09/27 01:44:59;;;;;;;2.42;0.80;;;11.30;99.90;;;;;;4934447;29;20043;-74
2022/09/27 01:47:31;;;;;;;1.00;0.80;;;11.20;99.90;;;;;;4947657;29;20043;-74
2022/09/27 01:50:04;;;;;;;2.65;0.80;;;11.20;99.90;;;;;;4914644;29;20055;-73
2022/09/27 01:52:49;;;;;;;2.33;0.80;;;11.20;99.90;;;;;;4929225;29;20039;-74
2022/09/27 01:55:17;;;;;;;2.03;0.75;;;11.20;99.90;;;;;;4929687;29;20133;-74
2022/09/27 01:57:48;;;;;;;4.72;0.90;;;11.20;99.90;;;;;;4962796;28;20501;-74
2022/09/27 02:00:15;;;;;;;2.42;0.70;;;11.20;99.90;;;;;;4912086;29;20548;-74
2022/09/27 02:02:45;;;;;;;1.50;0.70;;;11.20;99.90;;;;;;4925565;29;20039;-73
2022/09/27 02:05:13;;;;;;;0.73;0.50;;;11.20;99.90;;;;;;4930328;29;20754;-74
2022/09/27 02:07:55;;;;;;;0.70;0.60;;;11.20;99.90;;;;;;4930592;29;20051;-74
2022/09/27 02:10:24;;;;;;;1.08;0.60;;;11.20;99.90;;;;;;4914501;28;20051;-73
2022/09/27 02:13:10;;;;;;;2.00;0.75;;;11.20;99.90;;;;;;4915281;29;20051;-74
2022/09/27 02:15:58;;;;;;;0.95;0.60;;;11.20;99.90;;;;;;4974190;28;20066;-74
2022/09/27 02:18:54;;;;;;;1.17;0.60;;;11.20;99.90;;;;;;4958411;28;20114;-74
2022/09/27 02:21:20;;;;;;;1.33;0.70;;;11.20;99.90;;;;;;4944085;28;20770;-74
2022/09/27 02:23:51;;;;;;;1.30;0.68;;;11.20;99.90;;;;;;4929426;29;20077;-74
2022/09/27 02:26:30;;;;;;;0.75;0.70;;;11.20;99.90;;;;;;4930427;29;20519;-74
2022/09/27 02:29:04;;;;;;;1.08;0.70;;;11.20;99.90;;;;;;4915658;29;20122;-74
2022/09/27 02:31:30;;;;;;;1.85;0.70;;;11.30;99.90;;;;;;4934925;29;20049;-73
2022/09/27 02:33:59;;;;;;;1.77;0.70;;;11.30;99.90;;;;;;4901580;28;20055;-74
2022/09/27 02:36:25;;;;;;;1.90;0.70;;;11.30;99.90;;;;;;4933791;29;20048;-74
2022/09/27 02:38:51;;;;;;;1.13;0.77;;;11.30;99.90;;;;;;4964810;28;20047;-73
2022/09/27 02:41:19;;;;;;;1.35;0.70;;;11.30;99.90;;;;;;4943542;28;20047;-74
2022/09/27 02:43:47;;;;;;;1.37;0.90;;;11.40;99.90;;;;;;4935930;28;20043;-74
2022/09/27 02:46:30;;;;;;;2.53;1.08;;;11.30;99.90;;;;;;4948864;29;20343;-74
2022/09/27 02:49:22;;;;;;;3.13;1.05;;;11.30;99.90;;;;;;4949794;29;20046;-74
2022/09/27 02:52:13;;;;;;;2.80;1.00;;;11.30;99.90;;;;;;4950371;29;20142;-73
2022/09/27 02:55:07;;;;;;;2.97;1.15;;;11.40;99.90;;;;;;4945531;28;20134;-74
2022/09/27 02:57:57;;;;;;;3.58;1.55;;;11.40;99.90;;;;;;4942503;29;20043;-74
2022/09/27 03:00:52;;;;;;;3.15;1.52;;;11.40;99.90;;;;;;4949961;28;20074;-74
2022/09/27 03:03:28;;;;;;;2.00;1.10;;;11.40;99.90;;;;;;4946869;29;20129;-73
2022/09/27 03:06:00;;;;;;;3.47;1.30;;;11.40;99.90;;;;;;4930466;29;20520;-73
2022/09/27 03:08:26;;;;;;;2.35;1.13;;;11.30;99.90;;;;;;4927811;29;20059;-74
2022/09/27 03:10:52;;;;;;;1.25;0.88;;;11.40;99.90;;;;;;4949960;28;20053;-74
2022/09/27 03:13:18;;;;;;;2.25;1.10;;;11.30;99.90;;;;;;4950374;28;20062;-74
2022/09/27 03:15:43;;;;;;;2.25;1.20;;;11.30;99.90;;;;;;4945076;29;20052;-74
2022/09/27 03:18:10;;;;;;;2.58;1.10;;;11.40;99.90;;;;;;4948746;28;20075;-74
2022/09/27 03:20:36;;;;;;;1.58;0.98;;;11.30;99.90;;;;;;4948775;29;20154;-74
2022/09/27 03:23:02;;;;;;;2.40;1.05;;;11.40;99.90;;;;;;4942697;29;20047;-75
2022/09/27 03:25:27;;;;;;;2.60;1.50;;;11.30;99.90;;;;;;4949351;29;20062;-74
2022/09/27 03:27:53;;;;;;;3.05;1.40;;;11.30;99.90;;;;;;4948480;29;20039;-74
2022/09/27 03:30:20;;;;;;;2.40;1.50;;;11.30;99.90;;;;;;4932903;29;20059;-74
2022/09/27 03:32:46;;;;;;;3.50;1.55;;;11.30;99.90;;;;;;4978496;28;20128;-74
2022/09/27 03:35:12;;;;;;;4.53;1.38;;;11.30;99.90;;;;;;4931149;29;20101;-74
2022/09/27 03:37:38;;;;;;;3.28;1.38;;;11.30;99.90;;;;;;4916606;29;20601;-74
2022/09/27 03:40:06;;;;;;;4.97;1.70;;;11.30;99.90;;;;;;4943237;28;20524;-74
2022/09/27 03:42:33;;;;;;;3.22;1.50;;;11.30;99.90;;;;;;4947458;29;20047;-74
2022/09/27 03:45:00;;;;;;;5.27;1.20;;;11.30;99.90;;;;;;4949225;28;20105;-74
2022/09/27 03:47:27;;;;;;;3.35;1.50;;;11.30;99.90;;;;;;4980072;28;20397;-74
2022/09/27 03:49:53;;;;;;;3.83;1.80;;;11.30;99.90;;;;;;4948575;29;20051;-74
2022/09/27 03:52:20;;;;;;;2.58;1.40;;;11.30;99.90;;;;;;4915760;29;20412;-74
2022/09/27 03:54:46;;;;;;;3.72;1.20;;;11.30;99.90;;;;;;4932457;29;20240;-74
2022/09/27 03:57:13;;;;;;;3.28;1.30;;;11.20;99.90;;;;;;4947299;28;20063;-75
2022/09/27 03:59:38;;;;;;;2.70;1.40;;;11.30;99.90;;;;;;4948407;28;20063;-75
2022/09/27 04:02:04;;;;;;;2.95;1.63;;;11.20;99.90;;;;;;4933092;29;20098;-75
2022/09/27 04:04:30;;;;;;;2.63;1.50;;;11.20;99.90;;;;;;4929044;29;20269;-74
2022/09/27 04:06:57;;;;;;;3.75;1.60;;;11.30;99.90;;;;;;4948997;28;20174;-74
2022/09/27 04:09:24;;;;;;;4.40;1.90;;;11.30;99.90;;;;;;4945041;28;20043;-74
2022/09/27 04:11:51;;;;;;;2.28;1.65;;;11.20;99.90;;;;;;4948335;29;20293;-74
2022/09/27 04:14:21;;;;;;;8.02;1.95;;;11.20;99.90;;;;;;4916114;29;20039;-74
2022/09/27 04:16:48;;;;;;;6.13;2.35;;;11.20;99.90;;;;;;4942012;28;20062;-74
2022/09/27 04:19:14;;;;;;;4.70;1.90;;;11.20;99.90;;;;;;4947770;29;20047;-75
2022/09/27 04:21:40;;;;;;;5.28;2.10;;;11.20;99.90;;;;;;4949220;29;20051;-74
2022/09/27 04:24:10;;;;;;;4.80;2.45;;;11.20;99.90;;;;;;4948323;29;20677;-74
2022/09/27 04:26:36;;;;;;;7.13;2.92;;;11.20;99.90;;;;;;4947766;28;20043;-74
2022/09/27 04:29:03;;;;;;;6.50;2.63;;;11.10;99.90;;;;;;4948713;28;20066;-74
2022/09/27 04:31:29;;;;;;;8.95;2.60;;;11.10;99.90;;;;;;4943265;29;20103;-74
2022/09/27 04:33:55;;;;;;;7.22;2.88;;;11.10;99.90;;;;;;4945568;28;20771;-74
2022/09/27 04:36:25;;;;;;;7.38;2.55;;;11.10;99.90;;;;;;4947017;28;20146;-74
2022/09/27 04:38:57;;;;;;;8.35;2.67;;;11.10;99.90;;;;;;4946301;28;20047;-74
2022/09/27 04:41:25;;;;;;;6.30;2.55;;;11.00;99.90;;;;;;4941591;29;20047;-74
2022/09/27 04:43:54;;;;;;;5.40;2.30;;;11.00;99.90;;;;;;4919325;28;20754;-75
2022/09/27 04:46:21;;;;;;;6.80;2.70;;;11.00;99.90;;;;;;4931650;29;20051;-67
2022/09/27 04:48:47;;;;;;;6.53;3.13;;;11.10;99.90;;;;;;4947413;28;20078;-67
2022/09/27 04:51:16;;;;;;;5.18;2.35;;;11.00;99.90;;;;;;4930118;29;20094;-68
2022/09/27 04:53:43;;;;;;;5.57;2.40;;;11.00;99.90;;;;;;4910209;29;20137;-67
2022/09/27 04:56:09;;;;;;;6.25;2.28;;;11.10;99.90;;;;;;4924865;29;20282;-67
2022/09/27 04:58:35;;;;;;;4.50;3.00;;;11.10;99.90;;;;;;4945522;29;20047;-68
2022/09/27 05:01:02;;;;;;;5.80;2.42;;;11.10;99.90;;;;;;4911761;29;20370;-68
2022/09/27 05:03:29;;;;;;;3.07;1.97;;;11.10;99.90;;;;;;4931096;29;20047;-68
2022/09/27 05:05:55;;;;;;;8.18;2.58;;;11.10;99.90;;;;;;4914767;29;20057;-67
2022/09/27 05:08:21;;;;;;;7.63;2.42;;;11.00;99.90;;;;;;4930061;29;20055;-67
2022/09/27 05:10:48;;;;;;;4.80;2.38;;;10.90;99.90;;;;;;4962854;28;20537;-68
2022/09/27 05:13:17;;;;;;;5.00;2.45;;;10.90;99.90;;;;;;4960933;28;20082;-68
2022/09/27 05:15:43;;;;;;;4.47;2.17;;;10.90;99.90;;;;;;4942709;28;20050;-68
2022/09/27 05:18:08;;;;;;;5.70;2.70;;;10.90;99.90;;;;;;4950853;29;20429;-67
2022/09/27 05:20:35;;;;;;;4.25;2.35;;;10.90;99.90;;;;;;4948544;29;20079;-68
2022/09/27 05:23:04;;;;;;;4.72;1.95;;;10.90;99.90;;;;;;4948324;28;20050;-68
2022/09/27 05:25:31;;;;;;;5.05;2.60;;;10.90;99.90;;;;;;4916458;29;20051;-68
2022/09/27 05:27:58;;;;;;;5.60;2.55;;;11.00;99.90;;;;;;4933106;29;20062;-67
2022/09/27 05:30:26;;;;;;;5.60;2.50;;;10.90;99.90;;;;;;4912488;29;20393;-74
2022/09/27 05:32:52;;;;;;;5.40;2.20;;;10.90;99.90;;;;;;4943865;29;20097;-74
2022/09/27 05:35:18;;;;;;;6.38;2.95;;;10.90;99.90;;;;;;4928566;29;20070;-74
2022/09/27 05:37:54;;;;;;;5.13;3.10;;;10.80;99.90;;;;;;4945988;28;20741;-74
2022/09/27 05:40:23;;;;;;;4.38;2.45;;;10.80;99.90;;;;;;4949724;28;20062;-74
2022/09/27 05:42:53;;;;;;;5.03;2.70;;;10.80;99.90;;;;;;4949670;29;20524;-73
2022/09/27 05:45:21;;;;;;;6.60;2.70;;;10.70;99.90;;;;;;4953045;28;20051;-74
2022/09/27 05:47:57;;;;;;;6.28;3.67;;;10.70;99.90;;;;;;4927364;29;20488;-74
2022/09/27 05:50:26;;;;;;;5.50;3.42;;;10.70;99.90;;;;;;4950916;28;20126;-74
2022/09/27 05:52:52;;;;;;;6.18;2.80;;;10.70;99.90;;;;;;4915101;29;20048;-73
2022/09/27 05:55:19;;;;;;;5.43;2.65;;;10.70;99.90;;;;;;4950157;28;20507;-74
2022/09/27 05:58:14;;;;;;;7.07;2.92;;;10.70;99.90;;;;;;4933637;29;20043;-74
2022/09/27 06:00:42;;;;;;;8.60;3.28;;;10.70;99.90;;;;;;4961540;28;20062;-74
2022/09/27 06:03:08;;;;;;;5.10;3.00;;;10.70;99.90;;;;;;4940338;29;20154;-74
2022/09/27 06:05:35;;;;;;;5.05;3.25;;;10.70;99.90;;;;;;4924422;29;20532;-74
2022/09/27 06:08:06;;;;;;;5.50;3.05;;;10.70;99.90;;;;;;4923515;29;20062;-74
2022/09/27 06:10:31;;;;;;;6.35;3.10;;;10.60;99.90;;;;;;4957182;28;20070;-74
2022/09/27 06:13:09;;;;;;;4.85;2.85;;;10.60;99.90;;;;;;4956353;28;20105;-73
2022/09/27 06:15:36;;;;;;;4.13;2.70;;;10.60;99.90;;;;;;4940289;29;20057;-74
2022/09/27 06:18:10;;;;;;;4.72;2.95;;;10.60;99.90;;;;;;4972517;28;20114;-74
2022/09/27 06:20:36;;;;;;;6.80;2.95;;;10.60;99.90;;;;;;4936540;29;20043;-74
2022/09/27 06:23:13;;;;;;;7.47;3.10;;;10.70;99.90;;;;;;4953828;29;20443;-74
2022/09/27 06:25:39;;;;;;;6.25;3.35;;;10.70;99.90;;;;;;4939748;29;20058;-74
2022/09/27 06:28:05;;;;;;;7.32;3.58;;;10.70;99.90;;;;;;4956199;28;20042;-74
2022/09/27 06:30:30;;;;;;;7.85;4.07;;;10.70;99.90;;;;;;4920437;29;20054;-74
2022/09/27 06:33:00;;;;;;;7.95;4.20;;;10.60;99.90;;;;;;4937952;29;20054;-74
2022/09/27 06:35:26;;;;;;;6.80;4.22;;;10.60;99.90;;;;;;4956299;28;20051;-74
2022/09/27 06:37:52;;;;;;;8.70;4.90;;;10.60;99.90;;;;;;4924062;29;20047;-73
2022/09/27 06:40:18;;;;;;;8.70;4.57;;;10.60;99.90;;;;;;4957366;28;20050;-74
2022/09/27 06:42:44;;;;;;;7.47;4.95;;;10.60;99.90;;;;;;4922722;29;20051;-74
2022/09/27 06:45:10;;;;;;;8.98;4.55;;;10.50;99.90;;;;;;4953801;28;20051;-74
2022/09/27 06:47:36;;;;;;;8.52;5.07;;;10.60;99.90;;;;;;4939905;28;20214;-73
2022/09/27 06:50:05;;;;;;;7.70;4.93;;;10.60;99.90;;;;;;4940141;29;20051;-73
2022/09/27 06:52:31;;;;;;;;;;;10.60;99.90;;;;;;4956466;28;20477;-74
2022/09/27 06:54:57;;;;;;;8.23;4.45;;;10.50;99.90;;;;;;4955537;28;19918;-74
2022/09/27 07:00:27;;;;;;;9.52;4.85;;;10.60;99.90;;;;;;4956360;29;20150;-74
2022/09/27 07:02:54;;;;;;;7.38;4.65;;;10.60;99.90;;;;;;4956772;29;20062;-73
2022/09/27 07:05:20;;;;;;;7.28;4.57;;;10.60;99.90;;;;;;4951445;28;20054;-74
2022/09/27 07:07:47;;;;;;;9.43;4.35;;;10.60;99.90;;;;;;4955924;29;20051;-74
2022/09/27 07:10:14;;;;;;;6.35;3.55;;;10.60;99.90;;;;;;4918528;29;20051;-73
2022/09/27 07:12:40;;;;;;;8.10;3.25;;;10.60;99.90;;;;;;4938973;29;20130;-73
2022/09/27 07:15:06;;;;;;;6.70;3.58;;;10.60;99.90;;;;;;4952910;28;20381;-73
2022/09/27 07:17:32;;;;;;;7.40;4.03;;;10.50;99.90;;;;;;4951370;28;20046;-74
2022/09/27 07:19:59;;;;;;;7.88;4.00;;;10.60;99.90;;;;;;4953436;28;20054;-73
2022/09/27 07:22:25;;;;;;;11.25;4.47;;;10.50;99.90;;;;;;4951028;28;20055;-73
2022/09/27 07:24:50;;;;;;;8.75;4.18;;;10.50;99.90;;;;;;4949274;28;20051;-73
2022/09/27 07:27:17;;;;;;;10.75;4.30;;;10.50;99.90;;;;;;4937254;29;20113;-74
2022/09/27 07:29:43;;;;;;;11.23;4.10;;;10.50;99.90;;;;;;4917068;29;20043;-73
2022/09/27 07:32:09;;;;;;;10.23;4.25;;;10.50;99.90;;;;;;4933667;29;20051;-73
2022/09/27 07:34:35;;;;;;;11.23;4.90;;;10.50;99.90;;;;;;4936275;29;20380;-73
2022/09/27 07:37:02;;;;;;;7.95;4.38;;;10.50;99.90;;;;;;4919941;29;20461;-73
2022/09/27 07:39:28;;;;;;;7.38;4.57;;;10.60;99.90;;;;;;4934037;29;20714;-73
2022/09/27 07:41:53;;;;;;;10.32;4.28;;;10.50;99.90;;;;;;4936788;29;20047;-73
2022/09/27 07:44:20;;;;;;;8.13;4.28;;;10.50;99.90;;;;;;4919742;29;20047;-73
2022/09/27 07:46:46;;;;;;;7.93;4.18;;;10.50;99.90;;;;;;4953488;28;20130;-74
2022/09/27 07:49:12;;;;;;;7.80;4.00;;;10.50;99.90;;;;;;4951536;29;20146;-74
2022/09/27 07:51:38;;;;;;;6.28;4.40;;;10.50;99.90;;;;;;4937304;29;20097;-73
2022/09/27 07:54:04;;;;;;;6.70;3.45;;;10.50;99.90;;;;;;4952488;28;20058;-73
2022/09/27 07:56:32;;;;;;;6.68;3.80;;;10.40;99.90;;;;;;4947969;29;20051;-73
2022/09/27 07:58:58;;;;;;;7.20;3.60;;;10.40;99.90;;;;;;4950847;28;20106;-73
2022/09/27 08:01:25;;;;;;;5.75;3.42;;;10.30;99.90;;;;;;4936432;29;20051;-73
2022/09/27 08:03:51;;;;;;;5.90;3.78;;;10.40;99.90;;;;;;4967456;28;20132;-73
2022/09/27 08:06:17;;;;;;;7.03;3.72;;;10.40;99.90;;;;;;4952606;28;20484;-75
2022/09/27 08:08:46;;;;;;;8.07;3.70;;;10.40;99.90;;;;;;4936429;29;20051;-73
2022/09/27 08:11:14;;;;;;;6.15;4.07;;;10.30;99.90;;;;;;4946586;29;20113;-73
2022/09/27 08:13:41;;;;;;;8.90;3.97;;;10.30;99.90;;;;;;4932449;29;20051;-74
2022/09/27 08:16:07;;;;;;;7.45;4.22;;;10.30;99.90;;;;;;4926754;29;20043;-74
2022/09/27 08:18:32;;;;;;;12.85;5.28;;;10.40;99.90;;;;;;4951782;29;20109;-73
2022/09/27 08:20:58;;;;;;;9.32;4.47;;;10.30;99.90;;;;;;4935470;29;20065;-74
2022/09/27 08:23:24;;;;;;;12.50;4.70;;;10.40;99.90;;;;;;4919953;29;20086;-73
2022/09/27 08:25:52;;;;;;;9.57;5.72;;;10.40;99.90;;;;;;4950179;28;20161;-73
2022/09/27 08:28:21;;;;;;;10.67;6.53;;;10.40;99.90;;;;;;4919325;29;20051;-73
2022/09/27 08:30:49;;;;;;;10.98;5.75;;;10.40;99.90;;;;;;4936577;29;20123;-74
2022/09/27 08:33:16;;;;;;;12.43;5.80;;;10.40;99.90;;;;;;4966823;28;20061;-74
2022/09/27 08:35:41;;;;;;;12.20;6.68;;;10.40;99.90;;;;;;4951302;29;20055;-74
2022/09/27 08:38:08;;;;;;;12.43;6.10;;;10.50;99.90;;;;;;4932566;29;20051;-74
2022/09/27 08:40:40;;;;;;;11.40;6.60;;;10.50;99.90;;;;;;4926449;29;20097;-74
2022/09/27 08:43:14;;;;;;;11.68;5.82;;;10.50;99.90;;;;;;4949812;28;20044;-74
2022/09/27 08:45:53;;;;;;;8.90;6.22;;;10.60;99.90;;;;;;4951006;28;20385;-74
2022/09/27 08:48:20;;;;;;;10.75;6.43;;;10.50;99.90;;;;;;4933622;29;20138;-74
2022/09/27 08:50:46;;;;;;;11.00;6.25;;;10.50;99.90;;;;;;4935335;29;20130;-74
2022/09/27 08:53:24;;;;;;;9.68;6.15;;;10.50;99.90;;;;;;4934052;29;20118;-73
2022/09/27 08:55:52;;;;;;;9.10;6.28;;;10.50;99.90;;;;;;4949131;29;20653;-74
2022/09/27 08:58:26;;;;;;;10.23;5.88;;;10.50;99.90;;;;;;4916260;29;20047;-74
2022/09/27 09:00:55;;;;;;;8.80;6.10;;;10.50;99.90;;;;;;4930434;29;20090;-74
2022/09/27 09:03:24;;;;;;;12.45;5.90;;;10.50;99.90;;;;;;4949201;28;20043;-73
2022/09/27 09:06:20;;;;;;;11.93;6.53;;;10.50;99.90;;;;;;4915506;29;20469;-73
2022/09/27 09:09:01;;;;;;;9.57;6.20;;;10.50;99.90;;;;;;4933455;29;20532;-74
2022/09/27 09:15:00;;;;;;;9.82;6.75;;;10.50;99.90;;;;;;4929027;28;20495;-73
2022/09/27 09:18:03;;;;;;;11.23;6.32;;;10.50;99.90;;;;;;4951689;29;20551;-74
2022/09/27 09:20:57;;;;;;;11.05;6.38;;;10.50;99.90;;;;;;4947399;29;20548;-73
2022/09/27 09:23:38;;;;;;;13.93;7.40;;;10.50;99.90;;;;;;4925821;29;20055;-74
2022/09/27 09:26:25;;;;;;;11.07;6.65;;;10.40;99.90;;;;;;4946908;29;20410;-74
2022/09/27 09:28:57;;;;;;;10.60;6.43;;;10.40;99.90;;;;;;4946743;28;20059;-71
2022/09/27 09:31:24;;;;;;;12.25;6.13;;;10.30;99.90;;;;;;4950387;28;20051;-73
2022/09/27 09:34:04;;;;;;;14.13;6.10;;;10.30;99.90;;;;;;4948306;28;20051;-73
2022/09/27 09:36:33;;;;;;;8.02;5.13;;;10.40;99.90;;;;;;4933179;29;20054;-73
2022/09/27 09:39:04;;;;;;;7.07;4.07;;;10.40;99.90;;;;;;4945066;28;20055;-73
2022/09/27 09:42:00;;;;;;;10.27;4.25;;;10.40;99.90;;;;;;4935338;29;20051;-73
2022/09/27 09:44:41;;;;;;;10.00;4.15;;;10.50;99.90;;;;;;4948340;29;20039;-74
2022/09/27 09:47:14;;;;;;;8.52;4.03;;;10.50;99.90;;;;;;4919427;29;20425;-73
2022/09/27 09:49:46;;;;;;;6.45;3.67;;;10.50;99.90;;;;;;4917617;29;20433;-74
2022/09/27 09:52:19;;;;;;;5.53;3.40;;;10.50;99.90;;;;;;4928282;29;20071;-73
2022/09/27 09:55:04;;;;;;;6.57;3.40;;;10.50;99.90;;;;;;4916603;29;20098;-73
2022/09/27 09:57:35;;;;;;;7.70;3.80;;;10.50;99.90;;;;;;4932910;29;20050;-74
2022/09/27 10:00:04;;;;;;;10.35;4.13;;;10.60;99.90;;;;;;4934489;29;20082;-74
2022/09/27 10:02:37;;;;;;;6.97;3.65;;;10.70;99.90;;;;;;4934550;29;20047;-74
2022/09/27 10:05:03;;;;;;;7.22;3.92;;;10.70;99.90;;;;;;4930308;29;20052;-74
2022/09/27 10:07:30;;;;;;;7.00;3.70;;;10.70;99.90;;;;;;4934353;29;20460;-74
2022/09/27 10:09:58;;;;;;;4.88;3.15;;;10.80;99.90;;;;;;4899024;29;20051;-74
2022/09/27 10:12:24;;;;;;;8.93;3.85;;;10.80;99.90;;;;;;4926902;29;20047;-74
2022/09/27 10:14:50;;;;;;;6.32;3.55;;;10.80;99.90;;;;;;4933272;29;20360;-66
2022/09/27 10:17:17;;;;;;;5.80;3.35;;;10.80;99.90;;;;;;4932473;29;20132;-67
2022/09/27 10:19:43;;;;;;;6.30;2.70;;;10.80;99.90;;;;;;4933492;29;20056;-66
2022/09/27 10:22:25;;;;;;;7.72;2.70;;;10.80;99.90;;;;;;4933052;29;20055;-65
2022/09/27 10:25:02;;;;;;;4.88;2.50;;;10.80;99.90;;;;;;4934437;29;20047;-67
2022/09/27 10:27:38;;;;;;;6.32;2.47;;;10.90;99.90;;;;;;4917672;29;20054;-66
2022/09/27 10:30:04;;;;;;;4.72;2.40;;;10.90;99.90;;;;;;4931337;29;20050;-66
2022/09/27 10:32:34;;;;;;;5.05;2.20;;;11.10;99.90;;;;;;4949296;29;20094;-66
2022/09/27 10:35:34;;;;;;;3.58;2.40;;;11.10;99.90;;;;;;4929527;29;20047;-65
2022/09/27 10:38:21;;;;;;;3.95;2.28;;;11.00;99.90;;;;;;4948225;28;20050;-66
2022/09/27 10:40:51;;;;;;;6.45;2.67;;;10.90;99.90;;;;;;4941195;29;20051;-66
2022/09/27 10:43:35;;;;;;;6.68;1.95;;;10.90;99.90;;;;;;4898863;29;20343;-67
2022/09/27 10:46:23;;;;;;;4.82;2.10;;;11.00;99.90;;;;;;4932379;29;20051;-67
2022/09/27 10:49:06;;;;;;;3.03;1.63;;;11.40;99.90;;;;;;4950443;28;20150;-66
2022/09/27 10:51:32;;;;;;;3.42;1.90;;;11.40;99.90;;;;;;4934359;29;20062;-66
2022/09/27 10:53:59;;;;;;;3.45;1.90;;;11.40;99.90;;;;;;4934218;29;20385;-66
2022/09/27 10:56:28;;;;;;;6.07;1.73;;;11.70;99.90;;;;;;4936805;29;20384;-66
2022/09/27 10:58:54;;;;;;;8.38;1.58;;;12.10;99.90;;;;;;4935900;28;20294;-65
2022/09/27 11:01:20;;;;;;;4.63;1.45;;;13.00;97.60;;;;;;4952738;29;20050;-67
2022/09/27 11:03:54;;;;;;;3.05;1.10;;;14.00;94.60;;;;;;4936742;29;20051;-67
2022/09/27 11:06:23;;;;;;;2.17;1.10;;;14.90;92.50;;;;;;4912307;29;20138;-68
2022/09/27 11:08:50;;;;;;;3.47;1.30;;;17.20;84.90;;;;;;4951238;28;20051;-68
2022/09/27 11:11:24;;;;;;;4.28;1.25;;;16.50;84.00;;;;;;4921339;29;20102;-67
2022/09/27 11:13:59;;;;;;;2.75;1.40;;;14.50;92.50;;;;;;4952855;29;20055;-67
2022/09/27 11:16:45;;;;;;;3.85;1.05;;;14.00;93.50;;;;;;4947659;28;20134;-67
2022/09/27 11:19:22;;;;;;;3.22;1.10;;;13.90;93.60;;;;;;4923139;28;20075;-67
2022/09/27 11:22:16;;;;;;;2.47;0.80;;;15.20;92.10;;;;;;4952763;28;20392;-68
2022/09/27 11:25:16;;;;;;;3.28;0.90;;;16.70;81.40;;;;;;4952020;28;20085;-69
2022/09/27 11:27:58;;;;;;;3.17;1.00;;;16.50;79.70;;;;;;4946685;28;20563;-68
2022/09/27 11:30:24;;;;;;;3.60;1.13;;;15.10;90.20;;;;;;4936076;29;20109;-68
2022/09/27 11:32:59;;;;;;;3.40;0.60;;;14.00;91.80;;;;;;4917625;29;20048;-68
2022/09/27 11:35:31;;;;;;;5.57;1.00;;;13.80;93.10;;;;;;4936989;29;20051;-68
2022/09/27 11:38:16;;;;;;;6.00;2.75;;;13.50;93.60;;;;;;4952883;29;20039;-67
2022/09/27 11:41:27;;;;;;;3.08;0.90;;;13.10;94.50;;;;;;4951872;29;20117;-65
2022/09/27 11:44:28;;;;;;;2.92;1.13;;;12.90;95.90;;;;;;4893232;29;20091;-68
2022/09/27 11:47:36;;;;;;;5.28;1.95;;;12.40;98.60;;;;;;4879927;29;20179;-68
2022/09/27 11:50:32;;;;;;;6.75;1.20;;;11.80;99.90;;;;;;4937304;29;20053;-68
2022/09/27 11:53:32;;;;;;;2.97;1.08;;;11.40;99.90;;;;;;4937558;29;20043;-68
2022/09/27 11:56:36;;;;;;;2.95;1.15;;;11.20;99.90;;;;;;4952547;29;20119;-67
2022/09/27 11:59:13;;;;;;;3.42;0.90;;;11.10;99.90;;;;;;4945642;28;20055;-68
2022/09/27 12:02:08;;;;;;;3.97;1.10;;;11.00;99.90;;;;;;4947869;28;20043;-74
2022/09/27 12:05:19;;;;;;;3.20;1.00;;;10.80;99.90;;;;;;4903955;29;20050;-75
2022/09/27 12:08:22;;;;;;;8.32;1.50;;;10.60;99.90;;;;;;4937495;29;20154;-73
2022/09/27 12:10:50;;;;;;;3.75;1.15;;;10.50;99.90;;;;;;4911889;29;20049;-75
2022/09/27 12:13:49;;;;;;;3.05;0.90;;;10.30;99.90;;;;;;4936375;28;20106;-74
2022/09/27 12:16:16;;;;;;;4.47;0.75;;;10.40;99.90;;;;;;4949162;28;20055;-74
2022/09/27 12:18:43;;;;;;;3.42;0.70;;;10.50;99.90;;;;;;4948134;29;20047;-74
2022/09/27 12:21:09;;;;;;;3.22;0.75;;;10.60;99.90;;;;;;4932252;29;20051;-74
2022/09/27 12:23:46;;;;;;;5.25;1.08;;;10.70;99.90;;;;;;4931975;29;20054;-74
2022/09/27 12:26:25;;;;;;;1.80;0.70;;;10.80;99.90;;;;;;4919616;29;20063;-73
2022/09/27 12:29:13;;;;;;;3.42;1.00;;;10.90;99.90;;;;;;4916552;29;20134;-73
2022/09/27 12:32:14;;;;;;;1.60;0.82;;;10.90;99.90;;;;;;4931981;29;20807;-74
2022/09/27 12:35:06;;;;;;;4.30;1.02;;;10.90;99.90;;;;;;4930760;29;20043;-73
2022/09/27 12:37:48;;;;;;;1.42;0.70;;;11.00;99.90;;;;;;4905913;29;20057;-74
2022/09/27 12:40:41;;;;;;;4.18;1.35;;;10.90;99.90;;;;;;4942411;29;20105;-73
2022/09/27 12:43:24;;;;;;;5.60;1.13;;;10.80;99.90;;;;;;4947071;29;20051;-73
2022/09/27 12:45:55;;;;;;;2.22;1.05;;;10.80;99.90;;;;;;4917063;29;20046;-73
2022/09/27 12:48:46;;;;;;;2.78;1.00;;;10.80;99.90;;;;;;4948708;29;20047;-74
2022/09/27 12:51:18;;;;;;;1.95;0.90;;;10.90;99.90;;;;;;4941309;28;20058;-73
2022/09/27 12:53:57;;;;;;;5.07;1.40;;;10.90;99.90;;;;;;4944914;28;20087;-73
2022/09/27 12:56:31;;;;;;;;;;;10.90;99.90;;;;;;4948179;29;20065;-73
2022/09/27 12:59:06;;;;;;;1.52;0.80;;;11.00;99.90;;;;;;4945371;29;19918;-73
2022/09/27 13:01:32;;;;;;;1.48;0.77;;;11.10;99.90;;;;;;4931279;29;20342;-74
2022/09/27 13:04:24;;;;;;;1.02;0.60;;;11.00;99.90;;;;;;4931272;29;20050;-73
2022/09/27 13:06:54;;;;;;;2.50;0.40;;;11.00;99.90;;;;;;4945412;29;20051;-73
2022/09/27 13:09:29;;;;;;;1.35;0.73;;;11.00;99.90;;;;;;4947522;29;20043;-73
2022/09/27 13:12:09;;;;;;;2.20;0.60;;;11.00;99.90;;;;;;4928228;29;20150;-74
2022/09/27 13:14:44;;;;;;;1.17;0.60;;;11.10;99.90;;;;;;4942233;29;20134;-74
2022/09/27 13:17:30;;;;;;;1.33;0.50;;;12.20;99.90;;;;;;4928506;29;20055;-74
2022/09/27 13:19:56;;;;;;;1.75;0.52;;;12.90;96.70;;;;;;4929571;29;20112;-74
2022/09/27 13:22:39;;;;;;;1.30;0.65;;;13.10;97.00;;;;;;4946652;28;20868;-75